Impacts METAR Board
IDs:

KORD - Chicago/O'Hare Intl, IL, US

Updated at: 2000 UTC 24 Apr 2018
Potential Impact None Slight Moderate High
Time 24/08Z 24/09Z 24/10Z 24/11Z 24/12Z 24/13Z 24/14Z 24/15Z 24/16Z 24/17Z 24/18Z 24/19Z 24/20Z
Temp49 50 49 48 49 50 52 57 59 61 64 62 64
Dewpt34 36 34 36 37 38 41 44 46 47 48 47 47
Altim30.05 30.06 30.05 30.05 30.06 30.06 30.06 30.05 30.04 30.03 30.02 30.01 29.99
VIS10 10 10 10 10 10 10 10 10 10 10 10 10
CIG19 11 19 90 90 100 75 80 43 43 250 -- --
CoverOVCOVCOVCOVCBKNBKNBKNBKNBKNBKNBKNSCTSCT
FltCatMVFRMVFRMVFRVFRVFRVFRVFRVFRVFRVFRVFRVFRVFR
WX-------RA-RA----------------
WDir20301010201010202040505020
WSpd3 4 6 5 5 5 6 6 6 8 8 7 12
WGst-- -- -- -- -- -- -- -- -- -- -- -- --
Raw hourly METARs
KORD 240751Z 02003KT 10SM OVC019 09/01 A3005 RMK AO2 RAB15E24 SLP176 P0000 T00940011
KORD 240851Z 03004KT 10SM OVC011 10/02 A3006 RMK AO2 SLP180 60000 T01000022 55006
KORD 240951Z 01006KT 10SM OVC019 09/01 A3005 RMK AO2 SLP177 T00940011
KORD 241104Z 01005KT 10SM -RA SCT018 OVC090 09/02 A3005 RMK AO2 RAB1052 P0000 T00890022
KORD 241151Z 02005KT 10SM -RA FEW020 BKN090 09/03 A3006 RMK AO2 RAB1052 SLP181 P0000 60000 T00940028 10100 20089 55000
KORD 241251Z 01005KT 10SM FEW070 BKN100 BKN120 10/03 A3006 RMK AO2 RAE10 SLP182 P0000 T01000033
KORD 241351Z 01006KT 10SM BKN075 11/05 A3006 RMK AO2 SLP180 T01110050
KORD 241451Z 02006KT 10SM FEW020 BKN080 14/07 A3005 RMK AO2 SLP175 60000 T01390067 58005
KORD 241551Z 02006KT 10SM FEW022 BKN043 BKN080 15/08 A3004 RMK AO2 SLP174 T01500078
KORD 241651Z 04008KT 10SM FEW028 BKN043 BKN100 16/08 A3003 RMK AO2 SLP169 T01610083
KORD 241751Z 05008KT 10SM FEW031 SCT043 SCT100 BKN250 18/09 A3002 RMK AO2 SLP165 60000 T01780089 10178 20094 58010
KORD 241851Z 05007KT 10SM FEW031 SCT100 SCT250 17/08 A3001 RMK AO2 SLP161 T01670083
KORD 241951Z 02012KT 10SM FEW040 SCT100 SCT250 18/08 A2999 RMK AO2 SLP157 T01780083



Page loaded:  20:59 UTC  |   01:59 PM Pacific  |   02:59 PM Mountain  |   03:59 PM Central  |   04:59 PM Eastern

 

ADVISORIES

FORECASTS

FORECASTS

OBSERVATIONS

USER TOOLS

ABOUT US